createdAt,value
2023-03-17T00:00:43.554Z,-0.4
2023-03-17T00:01:47.554Z,-0.4
2023-03-17T00:02:49.656Z,-0.4
2023-03-17T00:03:51.649Z,-0.4
2023-03-17T00:04:53.518Z,-0.4
2023-03-17T00:05:55.541Z,-0.4
2023-03-17T00:06:57.510Z,-0.5
2023-03-17T00:08:39.620Z,-0.5
2023-03-17T00:09:39.661Z,-0.5
2023-03-17T00:10:39.689Z,-0.5
2023-03-17T00:11:39.633Z,-0.5
2023-03-17T00:12:39.614Z,-0.5
2023-03-17T00:13:39.620Z,-0.5
2023-03-17T00:14:39.689Z,-0.6
2023-03-17T00:15:39.639Z,-0.5
2023-03-17T00:16:39.623Z,-0.5
2023-03-17T00:17:39.659Z,-0.5
2023-03-17T00:18:39.624Z,-0.5
2023-03-17T00:19:39.669Z,-0.5
2023-03-17T00:20:39.623Z,-0.6
2023-03-17T00:21:39.634Z,-0.6
2023-03-17T00:22:39.633Z,-0.6
2023-03-17T00:23:39.633Z,-0.6
2023-03-17T00:24:39.682Z,-0.6
2023-03-17T00:25:39.627Z,-0.6
2023-03-17T00:26:39.630Z,-0.6
2023-03-17T00:27:39.645Z,-0.6
2023-03-17T00:28:39.737Z,-0.6
2023-03-17T00:29:41.528Z,-0.6
2023-03-17T00:30:43.540Z,-0.6
2023-03-17T00:31:47.534Z,-0.6
2023-03-17T00:32:49.669Z,-0.6
2023-03-17T00:33:51.610Z,-0.6
2023-03-17T00:34:53.540Z,-0.6
2023-03-17T00:35:55.603Z,-0.6
2023-03-17T00:36:57.540Z,-0.7
2023-03-17T00:37:59.541Z,-0.7
2023-03-17T00:39:02.535Z,-0.7
2023-03-17T00:40:04.527Z,-0.7
2023-03-17T00:41:06.565Z,-0.7
2023-03-17T00:42:08.570Z,-0.7
2023-03-17T00:43:10.593Z,-0.7
2023-03-17T00:44:12.538Z,-0.7
2023-03-17T00:45:14.531Z,-0.7
2023-03-17T00:46:16.669Z,-0.7
2023-03-17T00:47:18.568Z,-0.7
2023-03-17T00:48:20.574Z,-0.7
2023-03-17T00:49:22.573Z,-0.7
2023-03-17T00:50:24.548Z,-0.8
2023-03-17T00:51:26.550Z,-0.8
2023-03-17T00:52:28.558Z,-0.8
2023-03-17T00:53:30.562Z,-0.8
2023-03-17T00:54:32.535Z,-0.8
2023-03-17T00:55:34.543Z,-0.8
2023-03-17T00:56:36.579Z,-0.8
2023-03-17T00:57:38.537Z,-0.8
2023-03-17T00:58:40.597Z,-0.8
2023-03-17T00:59:43.573Z,-0.8
2023-03-17T01:00:46.558Z,-0.8
2023-03-17T01:01:48.602Z,-0.8
2023-03-17T01:02:50.592Z,-0.8
2023-03-17T01:03:52.540Z,-0.8
2023-03-17T01:05:05.481Z,-0.8
2023-03-17T01:05:56.553Z,-0.8
2023-03-17T01:06:58.578Z,-0.7
2023-03-17T01:08:00.561Z,-0.7
2023-03-17T01:09:02.543Z,-0.7
2023-03-17T01:10:04.547Z,-0.7
2023-03-17T01:11:06.587Z,-0.8
2023-03-17T01:12:39.684Z,-0.8
2023-03-17T01:13:39.655Z,-0.8
2023-03-17T01:15:14.542Z,-0.8
2023-03-17T01:16:16.575Z,-0.8
2023-03-17T01:17:18.564Z,-0.7
2023-03-17T01:18:21.657Z,-0.7
2023-03-17T01:19:23.556Z,-0.7
2023-03-17T01:20:25.555Z,-0.7
2023-03-17T01:21:27.559Z,-0.7
2023-03-17T01:22:29.566Z,-0.7
2023-03-17T01:23:31.723Z,-0.7
2023-03-17T01:24:33.553Z,-0.7
2023-03-17T01:25:35.577Z,-0.7
2023-03-17T01:26:37.756Z,-0.7
2023-03-17T01:27:39.590Z,-0.7
2023-03-17T01:28:41.586Z,-0.7
2023-03-17T01:29:43.578Z,-0.7
2023-03-17T01:30:46.577Z,-0.7
2023-03-17T01:31:48.626Z,-0.7
2023-03-17T01:32:50.648Z,-0.7
2023-03-17T01:33:52.602Z,-0.7
2023-03-17T01:34:54.578Z,-0.8
2023-03-17T01:35:56.612Z,-0.7
2023-03-17T01:36:58.568Z,-0.8
2023-03-17T01:38:00.608Z,-0.8
2023-03-17T01:39:02.568Z,-0.8
2023-03-17T01:40:04.603Z,-0.8
2023-03-17T01:41:06.570Z,-0.8
2023-03-17T01:42:08.570Z,-0.7
2023-03-17T01:43:10.644Z,-0.7
2023-03-17T01:44:12.596Z,-0.7
2023-03-17T01:45:15.572Z,-0.8
2023-03-17T01:46:17.582Z,-0.8
2023-03-17T01:47:19.576Z,-0.7
2023-03-17T01:49:23.604Z,-0.8
2023-03-17T01:50:25.620Z,-0.8
2023-03-17T01:51:27.618Z,-0.8
2023-03-17T01:52:29.570Z,-0.8
2023-03-17T01:53:31.577Z,-0.8
2023-03-17T01:54:33.576Z,-0.8
2023-03-17T01:55:35.734Z,-0.8
2023-03-17T01:56:37.574Z,-0.8
2023-03-17T01:57:39.652Z,-0.8
2023-03-17T01:58:41.609Z,-0.8
2023-03-17T01:59:43.643Z,-0.8
2023-03-17T02:00:46.632Z,-0.8
2023-03-17T02:01:48.570Z,-0.8
2023-03-17T02:02:50.576Z,-0.8
2023-03-17T02:03:52.686Z,-0.8
2023-03-17T02:04:54.587Z,-0.8
2023-03-17T02:05:56.578Z,-0.8
2023-03-17T02:06:59.139Z,-0.8
2023-03-17T02:08:00.583Z,-0.8
2023-03-17T02:09:02.600Z,-0.8
2023-03-17T02:10:04.553Z,-0.8
2023-03-17T02:11:06.583Z,-0.9
2023-03-17T02:12:08.603Z,-0.8
2023-03-17T02:13:10.644Z,-0.9
2023-03-17T02:14:12.588Z,-0.8
2023-03-17T02:15:14.591Z,-0.8
2023-03-17T02:16:16.718Z,-0.8
2023-03-17T02:17:18.602Z,-0.8
2023-03-17T02:18:20.613Z,-0.7
2023-03-17T02:19:22.603Z,-0.8
2023-03-17T02:20:24.610Z,-0.7
2023-03-17T02:21:26.584Z,-0.7
2023-03-17T02:22:28.601Z,-0.7
2023-03-17T02:23:30.604Z,-0.8
2023-03-17T02:24:32.600Z,-0.8
2023-03-17T02:25:34.608Z,-0.8
2023-03-17T02:26:36.596Z,-0.8
2023-03-17T02:27:38.595Z,-0.8
2023-03-17T02:28:40.648Z,-0.8
2023-03-17T02:29:43.605Z,-0.8
2023-03-17T02:30:47.640Z,-0.8
2023-03-17T02:31:50.593Z,-0.9
2023-03-17T02:32:52.732Z,-0.9
2023-03-17T02:33:54.662Z,-0.9
2023-03-17T02:34:56.613Z,-0.9
2023-03-17T02:35:58.665Z,-0.9
2023-03-17T02:37:00.633Z,-0.9
2023-03-17T02:38:02.604Z,-0.9
2023-03-17T02:39:04.604Z,-0.9
2023-03-17T02:40:06.624Z,-0.8
2023-03-17T02:41:09.609Z,-0.9
2023-03-17T02:42:11.664Z,-0.8
2023-03-17T02:43:13.621Z,-0.8
2023-03-17T02:44:15.622Z,-0.8
2023-03-17T02:45:17.661Z,-0.8
2023-03-17T02:46:19.621Z,-0.8
2023-03-17T02:47:21.620Z,-0.8
2023-03-17T02:48:23.635Z,-0.8
2023-03-17T02:49:25.620Z,-0.8
2023-03-17T02:50:28.949Z,-0.8
2023-03-17T02:51:30.617Z,-0.8
2023-03-17T02:52:32.626Z,-0.9
2023-03-17T02:53:34.613Z,-0.9
2023-03-17T02:54:36.621Z,-0.9
2023-03-17T02:55:51.633Z,-0.9
2023-03-17T02:56:40.613Z,-0.9
2023-03-17T02:57:43.639Z,-0.8
2023-03-17T02:58:46.628Z,-0.8
2023-03-17T02:59:48.615Z,-0.8
2023-03-17T03:00:50.646Z,-0.8
2023-03-17T03:01:52.621Z,-0.7
2023-03-17T03:02:54.761Z,-0.8
2023-03-17T03:03:56.631Z,-0.8
2023-03-17T03:04:58.623Z,-0.8
2023-03-17T03:06:03.043Z,-0.8
2023-03-17T03:07:02.662Z,-0.8
2023-03-17T03:08:04.643Z,-0.8
2023-03-17T03:10:08.651Z,-0.8
2023-03-17T03:11:10.659Z,-0.8
2023-03-17T03:12:12.663Z,-0.8
2023-03-17T03:13:14.643Z,-0.8
2023-03-17T03:14:16.633Z,-0.8
2023-03-17T03:15:18.636Z,-0.8
2023-03-17T03:16:33.653Z,-0.8
2023-03-17T03:17:22.644Z,-0.8
2023-03-17T03:18:24.648Z,-0.8
2023-03-17T03:19:26.681Z,-0.8
2023-03-17T03:20:29.858Z,-0.8
2023-03-17T03:21:31.688Z,-0.8
2023-03-17T03:22:33.653Z,-0.8
2023-03-17T03:23:35.632Z,-0.8
2023-03-17T03:24:37.681Z,-0.9
2023-03-17T03:25:39.686Z,-0.9
2023-03-17T03:26:41.642Z,-0.9
2023-03-17T03:27:43.705Z,-0.9
2023-03-17T03:28:47.638Z,-0.9
2023-03-17T03:29:49.647Z,-0.9
2023-03-17T03:30:51.682Z,-0.9
2023-03-17T03:31:53.650Z,-0.9
2023-03-17T03:32:55.739Z,-0.9
2023-03-17T03:33:57.642Z,-0.9
2023-03-17T03:34:59.644Z,-0.8
2023-03-17T03:36:01.717Z,-0.8
2023-03-17T03:37:03.695Z,-0.8
2023-03-17T03:38:05.699Z,-0.8
2023-03-17T03:40:09.741Z,-0.8
2023-03-17T03:41:12.652Z,-0.9
2023-03-17T03:42:14.649Z,-0.8
2023-03-17T03:43:23.429Z,-0.9
2023-03-17T03:44:18.645Z,-0.9
2023-03-17T03:45:39.753Z,-0.9
2023-03-17T03:46:39.788Z,-0.9
2023-03-17T03:47:39.764Z,-0.9
2023-03-17T03:48:39.805Z,-0.9
2023-03-17T03:49:39.773Z,-0.9
2023-03-17T03:50:40.776Z,-0.9
2023-03-17T03:51:39.769Z,-0.9
2023-03-17T03:52:39.796Z,-0.9
2023-03-17T03:53:39.819Z,-0.9
2023-03-17T03:54:39.777Z,-0.9
2023-03-17T03:55:40.656Z,-0.9
2023-03-17T03:56:43.681Z,-0.9
2023-03-17T03:57:46.658Z,-0.9
2023-03-17T03:58:49.669Z,-0.9
2023-03-17T03:59:51.664Z,-0.9
2023-03-17T04:00:53.711Z,-0.9
2023-03-17T04:01:55.670Z,-0.8
2023-03-17T04:02:57.740Z,-0.8
2023-03-17T04:03:59.654Z,-0.8
2023-03-17T04:05:01.795Z,-0.8
2023-03-17T04:06:03.660Z,-0.8
2023-03-17T04:07:05.699Z,-0.9
2023-03-17T04:08:07.680Z,-0.9
2023-03-17T04:09:09.697Z,-0.9
2023-03-17T04:10:11.788Z,-0.9
2023-03-17T04:11:13.658Z,-1
2023-03-17T04:12:15.690Z,-1
2023-03-17T04:13:17.665Z,-1
2023-03-17T04:14:19.664Z,-1
2023-03-17T04:15:21.707Z,-1
2023-03-17T04:16:23.729Z,-1
2023-03-17T04:17:25.665Z,-1
2023-03-17T04:18:27.672Z,-1
2023-03-17T04:19:29.668Z,-1.1
2023-03-17T04:20:32.081Z,-1.1
2023-03-17T04:21:33.664Z,-1.1
2023-03-17T04:22:35.711Z,-1.1
2023-03-17T04:23:37.704Z,-1.1
2023-03-17T04:24:39.686Z,-1.1
2023-03-17T04:25:41.706Z,-1.1
2023-03-17T04:26:43.685Z,-1.1
2023-03-17T04:27:45.668Z,-1.1
2023-03-17T04:28:47.677Z,-1.1
2023-03-17T04:29:49.687Z,-1.1
2023-03-17T04:30:51.718Z,-1.2
2023-03-17T04:31:54.761Z,-1.2
2023-03-17T04:32:56.754Z,-1.2
2023-03-17T04:33:58.681Z,-1.2
2023-03-17T04:35:00.692Z,-1.2
2023-03-17T04:36:02.755Z,-1.2
2023-03-17T04:37:05.676Z,-1.2
2023-03-17T04:38:07.736Z,-1.2
2023-03-17T04:39:09.682Z,-1.2
2023-03-17T04:40:11.752Z,-1.2
2023-03-17T04:41:13.693Z,-1.2
2023-03-17T04:42:15.671Z,-1.2
2023-03-17T04:43:17.681Z,-1.2
2023-03-17T04:44:20.718Z,-1.2
2023-03-17T04:45:22.683Z,-1.2
2023-03-17T04:46:24.693Z,-1.2
2023-03-17T04:47:26.682Z,-1.2
2023-03-17T04:48:28.688Z,-1.2
2023-03-17T04:50:33.326Z,-1.3
2023-03-17T04:51:34.687Z,-1.3
2023-03-17T04:52:36.744Z,-1.3
2023-03-17T04:53:38.693Z,-1.3
2023-03-17T04:54:40.699Z,-1.3
2023-03-17T04:55:43.699Z,-1.3
2023-03-17T04:56:47.706Z,-1.3
2023-03-17T04:57:49.714Z,-1.3
2023-03-17T04:58:51.689Z,-1.3
2023-03-17T04:59:53.695Z,-1.3
2023-03-17T05:00:57.892Z,-1.3
2023-03-17T05:01:57.934Z,-1.3
2023-03-17T05:06:06.889Z,-1
2023-03-17T05:07:08.833Z,-1
2023-03-17T05:08:10.838Z,-1.1
2023-03-17T05:09:12.837Z,-1.1
2023-03-17T05:10:15.890Z,-1.2
2023-03-17T05:11:17.829Z,-1.2
2023-03-17T05:12:19.852Z,-1.2
2023-03-17T05:13:21.844Z,-1.3
2023-03-17T05:14:23.837Z,-1.3
2023-03-17T05:15:25.835Z,-1.3
2023-03-17T05:16:27.922Z,-1.3
2023-03-17T05:17:29.851Z,-1.3
2023-03-17T05:18:31.842Z,-1.3
2023-03-17T05:20:35.878Z,-1.3
2023-03-17T05:21:37.861Z,-1.3
2023-03-17T05:22:40.849Z,-1.4
2023-03-17T05:23:43.899Z,-1.4
2023-03-17T05:24:46.854Z,-1.4
2023-03-17T05:25:48.844Z,-1.4
2023-03-17T05:26:50.849Z,-1.4
2023-03-17T05:27:53.849Z,-1.5
2023-03-17T05:28:55.877Z,-1.5
2023-03-17T05:29:57.856Z,-1.5
2023-03-17T05:30:59.922Z,-1.5
2023-03-17T05:32:01.859Z,-1.5
2023-03-17T05:33:03.935Z,-1.5
2023-03-17T05:34:06.036Z,-1.5
2023-03-17T05:35:40.196Z,-1.5
2023-03-17T05:36:39.852Z,-1.5
2023-03-17T05:37:39.818Z,-1.4
2023-03-17T05:38:39.836Z,-1.4
2023-03-17T05:39:39.830Z,-1.4
2023-03-17T05:40:39.823Z,-1.5
2023-03-17T05:41:39.842Z,-1.5
2023-03-17T05:42:39.819Z,-1.5
2023-03-17T05:43:39.832Z,-1.5
2023-03-17T05:45:39.923Z,-1.5
2023-03-17T05:46:39.830Z,-1.5
2023-03-17T05:47:39.830Z,-1.6
2023-03-17T05:48:39.872Z,-1.5
2023-03-17T05:49:39.819Z,-1.5
2023-03-17T05:50:39.821Z,-1.5
2023-03-17T05:51:40.112Z,-1.5
2023-03-17T05:53:43.923Z,-1.5
2023-03-17T05:55:47.883Z,-1.5
2023-03-17T05:56:49.867Z,-1.5
2023-03-17T05:57:51.860Z,-1.5
2023-03-17T05:58:54.903Z,-1.5
2023-03-17T05:59:56.873Z,-1.5
2023-03-17T06:00:58.869Z,-1.5
2023-03-17T06:02:00.910Z,-1.5
2023-03-17T06:03:02.918Z,-1.5
2023-03-17T06:04:04.870Z,-1.5
2023-03-17T06:05:06.885Z,-1.5
2023-03-17T06:06:08.872Z,-1.5
2023-03-17T06:07:10.877Z,-1.5
2023-03-17T06:08:12.925Z,-1.5
2023-03-17T06:09:14.883Z,-1.5
2023-03-17T06:10:16.940Z,-1.5
2023-03-17T06:11:18.880Z,-1.5
2023-03-17T06:12:20.879Z,-1.5
2023-03-17T06:13:22.878Z,-1.5
2023-03-17T06:14:27.017Z,-1.4
2023-03-17T06:15:27.007Z,-1.5
2023-03-17T06:16:28.883Z,-1.5
2023-03-17T06:17:30.934Z,-1.4
2023-03-17T06:18:39.848Z,-1.4
2023-03-17T06:19:39.841Z,-1.4
2023-03-17T06:20:39.853Z,-1.4
2023-03-17T06:21:39.867Z,-1.3
2023-03-17T06:22:46.386Z,-1.4
2023-03-17T06:23:43.912Z,-1.3
2023-03-17T06:25:48.885Z,-1.3
2023-03-17T06:26:50.883Z,-1.3
2023-03-17T06:28:54.940Z,-1.3
2023-03-17T06:29:56.897Z,-1.3
2023-03-17T06:30:58.984Z,-1.3
2023-03-17T06:32:13.528Z,-1.3
2023-03-17T06:33:02.990Z,-1.3
2023-03-17T06:34:04.901Z,-1.3
2023-03-17T06:36:08.994Z,-1.3
2023-03-17T06:37:10.943Z,-1.3
2023-03-17T06:38:12.892Z,-1.2
2023-03-17T06:39:14.893Z,-1.2
2023-03-17T06:40:16.930Z,-1.2
2023-03-17T06:41:18.890Z,-1.2
2023-03-17T06:42:20.913Z,-1.2
2023-03-17T06:43:22.916Z,-1.2
2023-03-17T06:46:31.802Z,-1.2
2023-03-17T06:46:32.444Z,-1.2
2023-03-17T06:46:39.926Z,-1.2
2023-03-17T06:47:39.977Z,-1.2
2023-03-17T06:48:49.065Z,-1.1
2023-03-17T06:50:19.450Z,-1.1
2023-03-17T06:50:41.902Z,-1.1
2023-03-17T06:52:46.786Z,-1
2023-03-17T06:54:50.324Z,-1
2023-03-17T06:55:54.916Z,-0.9
2023-03-17T06:57:59.937Z,-0.9
2023-03-17T06:59:01.929Z,-0.8
2023-03-17T07:00:03.960Z,-0.8
2023-03-17T07:01:05.913Z,-0.8
2023-03-17T07:02:08.060Z,-0.7
2023-03-17T07:03:39.895Z,-0.7
2023-03-17T07:04:39.942Z,-0.6
2023-03-17T07:05:39.893Z,-0.6
2023-03-17T07:06:39.884Z,-0.6
2023-03-17T07:07:39.882Z,-0.6
2023-03-17T07:08:39.885Z,-0.6
2023-03-17T07:09:39.895Z,-0.6
2023-03-17T07:10:39.883Z,-0.5
2023-03-17T07:11:39.915Z,-0.5
2023-03-17T07:12:39.895Z,-0.5
2023-03-17T07:13:39.899Z,-0.5
2023-03-17T07:14:39.906Z,-0.5
2023-03-17T07:15:39.906Z,-0.5
2023-03-17T07:16:39.978Z,-0.5
2023-03-17T07:17:39.885Z,-0.4
2023-03-17T07:18:40.935Z,-0.4
2023-03-17T07:19:43.929Z,-0.4
2023-03-17T07:20:46.928Z,-0.4
2023-03-17T07:21:48.955Z,-0.4
2023-03-17T07:22:50.964Z,-0.3
2023-03-17T07:23:52.935Z,-0.3
2023-03-17T07:24:54.931Z,-0.3
2023-03-17T07:25:56.913Z,-0.3
2023-03-17T07:26:58.951Z,-0.3
2023-03-17T07:28:01.940Z,-0.2
2023-03-17T07:29:03.958Z,-0.1
2023-03-17T07:30:05.926Z,-0.1
2023-03-17T07:31:08.045Z,-0.1
2023-03-17T07:32:09.967Z,0
2023-03-17T07:34:39.971Z,0.1
2023-03-17T07:35:39.960Z,0.2
2023-03-17T07:36:39.903Z,0.2
2023-03-17T07:37:39.901Z,0.2
2023-03-17T07:38:39.949Z,0.3
2023-03-17T07:39:39.968Z,0.4
2023-03-17T07:40:39.907Z,0.6
2023-03-17T07:41:39.949Z,0.6
2023-03-17T07:42:39.907Z,0.7
2023-03-17T07:43:39.902Z,0.8
2023-03-17T07:44:39.927Z,0.9
2023-03-17T07:45:39.915Z,1
2023-03-17T07:46:39.910Z,1.1
2023-03-17T07:47:40.972Z,1.2
2023-03-17T07:48:43.962Z,1.3
2023-03-17T07:49:46.967Z,1.4
2023-03-17T07:50:48.935Z,1.5
2023-03-17T07:51:51.061Z,1.6
2023-03-17T07:52:52.970Z,1.7
2023-03-17T07:53:54.931Z,1.7
2023-03-17T07:54:56.944Z,1.8
2023-03-17T07:55:58.936Z,1.9
2023-03-17T07:57:00.973Z,2
2023-03-17T07:58:03.002Z,2
2023-03-17T07:59:04.997Z,2.1
2023-03-17T08:00:06.938Z,2.2
2023-03-17T08:01:08.985Z,2.3
2023-03-17T08:02:11.061Z,2.4
2023-03-17T08:03:13.111Z,2.5
2023-03-17T08:04:14.955Z,2.6
2023-03-17T08:05:16.944Z,2.7
2023-03-17T08:06:19.009Z,2.8
2023-03-17T08:07:21.959Z,2.9
2023-03-17T08:08:23.950Z,2.9
2023-03-17T08:09:25.953Z,3
2023-03-17T08:10:27.934Z,3.1
2023-03-17T08:11:30.078Z,3.1
2023-03-17T08:12:32.010Z,3.2
2023-03-17T08:13:33.956Z,3.3
2023-03-17T08:14:36.020Z,3.3
2023-03-17T08:15:38.007Z,3.4
2023-03-17T08:16:40.126Z,3.5
2023-03-17T08:17:42.017Z,3.6
2023-03-17T08:18:44.079Z,3.7
2023-03-17T08:19:47.952Z,3.7
2023-03-17T08:20:49.971Z,3.8
2023-03-17T08:21:52.044Z,3.9
2023-03-17T08:22:53.953Z,3.9
2023-03-17T08:23:55.980Z,4
2023-03-17T08:24:57.978Z,4
2023-03-17T08:25:59.953Z,4.1
2023-03-17T08:27:15.859Z,4.2
2023-03-17T08:28:03.960Z,4.2
2023-03-17T08:29:05.969Z,4.3
2023-03-17T08:31:12.329Z,4.4
2023-03-17T08:32:13.020Z,4.5
2023-03-17T08:33:15.074Z,4.6
2023-03-17T08:34:16.989Z,4.7
2023-03-17T08:35:19.004Z,4.7
2023-03-17T08:36:20.976Z,4.7
2023-03-17T08:37:22.967Z,4.8
2023-03-17T08:38:25.003Z,4.8
2023-03-17T08:39:27.005Z,4.9
2023-03-17T08:40:29.777Z,4.9
2023-03-17T08:41:31.994Z,4.9
2023-03-17T08:42:33.970Z,5
2023-03-17T08:43:35.975Z,5
2023-03-17T08:44:37.998Z,5
2023-03-17T08:45:39.986Z,5.1
2023-03-17T08:46:41.983Z,5.1
2023-03-17T08:47:43.994Z,5.1
2023-03-17T08:50:52.018Z,5.2
2023-03-17T08:51:54.043Z,5.3
2023-03-17T08:52:55.995Z,5.3
2023-03-17T08:53:57.981Z,5.4
2023-03-17T08:55:00.028Z,5.4
2023-03-17T08:56:01.997Z,5.5
2023-03-17T08:57:04.985Z,5.5
2023-03-17T08:58:06.998Z,5.5
2023-03-17T08:59:08.986Z,5.5
2023-03-17T09:00:11.086Z,5.5
2023-03-17T09:01:13.003Z,5.5
2023-03-17T09:02:15.056Z,5.6
2023-03-17T09:03:17.000Z,5.6
2023-03-17T09:04:19.011Z,5.6
2023-03-17T09:05:21.024Z,5.7
2023-03-17T09:06:23.005Z,5.7
2023-03-17T09:07:25.085Z,5.7
2023-03-17T09:08:27.025Z,5.8
2023-03-17T09:09:28.992Z,5.8
2023-03-17T09:10:31.211Z,5.8
2023-03-17T09:11:33.044Z,5.9
2023-03-17T09:12:35.067Z,5.9
2023-03-17T09:13:37.048Z,5.9
2023-03-17T09:14:43.987Z,5.9
2023-03-17T09:15:52.251Z,6
2023-03-17T09:16:44.026Z,6.1
2023-03-17T09:17:48.001Z,6.1
2023-03-17T09:19:52.004Z,6.2
2023-03-17T09:20:54.001Z,6.3
2023-03-17T09:21:56.052Z,6.4
2023-03-17T09:23:10.070Z,6.4
2023-03-17T09:28:15.187Z,6.9
2023-03-17T09:32:40.023Z,7.1
2023-03-17T09:33:40.003Z,7.1
2023-03-17T09:34:39.991Z,7.2
2023-03-17T09:35:40.605Z,7.3
2023-03-17T09:36:42.584Z,7.3
2023-03-17T09:38:47.202Z,7.4
2023-03-17T09:40:52.198Z,7.5
2023-03-17T09:41:54.194Z,7.5
2023-03-17T09:42:56.245Z,7.6
2023-03-17T09:43:58.200Z,7.6
2023-03-17T09:45:00.207Z,7.7
2023-03-17T09:46:02.237Z,7.8
2023-03-17T09:47:04.220Z,7.8
2023-03-17T09:48:39.997Z,7.9
2023-03-17T09:50:11.202Z,8
2023-03-17T09:51:15.214Z,8
2023-03-17T09:52:17.212Z,8
2023-03-17T09:53:24.658Z,8.1
2023-03-17T09:54:39.872Z,8.1
2023-03-17T09:55:30.228Z,8.1
2023-03-17T09:56:31.884Z,8.2
2023-03-17T09:57:33.858Z,8.2
2023-03-17T09:58:35.900Z,8.2
2023-03-17T09:59:37.864Z,8.2
2023-03-17T10:01:42.001Z,8.2
2023-03-17T10:02:43.864Z,8.2
2023-03-17T10:03:45.882Z,8.3
2023-03-17T10:05:50.591Z,8.3
2023-03-17T10:06:53.502Z,8.3
2023-03-17T10:08:40.022Z,8.4
2023-03-17T10:09:40.018Z,8.4
2023-03-17T10:11:52.879Z,8.4
2023-03-17T10:12:57.701Z,8.4
2023-03-17T10:15:04.211Z,8.5
2023-03-17T10:16:06.279Z,8.6
2023-03-17T10:17:08.301Z,8.6
2023-03-17T10:18:10.266Z,8.6
2023-03-17T10:20:15.015Z,8.6
2023-03-17T10:22:19.054Z,8.7
2023-03-17T10:23:21.003Z,8.7
2023-03-17T10:24:23.010Z,8.7
2023-03-17T10:29:53.171Z,8.8
2023-03-17T10:29:53.608Z,8.8
2023-03-17T10:35:55.501Z,8.9
2023-03-17T10:40:53.146Z,9.1
2023-03-17T10:45:04.670Z,9.3
2023-03-17T10:51:24.154Z,9.6
2023-03-17T10:51:28.360Z,9.6
2023-03-17T10:52:29.531Z,9.7
2023-03-17T10:53:31.559Z,9.7
2023-03-17T10:54:33.533Z,9.7
2023-03-17T10:55:35.542Z,9.7
2023-03-17T10:56:37.542Z,9.7
2023-03-17T10:57:39.532Z,9.7
2023-03-17T10:58:41.575Z,9.8
2023-03-17T11:00:18.506Z,9.8
2023-03-17T11:01:18.511Z,9.9
2023-03-17T11:04:59.150Z,10
2023-03-17T11:06:01.150Z,10
2023-03-17T11:08:05.984Z,10
2023-03-17T11:10:10.175Z,10
2023-03-17T11:11:12.127Z,10
2023-03-17T11:12:14.125Z,10
2023-03-17T11:13:45.271Z,10
2023-03-17T11:14:19.846Z,10.1
2023-03-17T11:16:18.577Z,10.1
2023-03-17T11:17:18.498Z,10.1
2023-03-17T11:18:18.507Z,10.1
2023-03-17T11:19:18.521Z,10.1
2023-03-17T11:21:18.576Z,10.2
2023-03-17T11:22:36.675Z,10.2
2023-03-17T11:24:19.656Z,10.2
2023-03-17T11:25:18.509Z,10.2
2023-03-17T11:27:18.552Z,10.3
2023-03-17T11:28:26.891Z,10.3
2023-03-17T11:29:53.922Z,10.4
2023-03-17T11:31:57.979Z,10.4
2023-03-17T11:33:01.064Z,10.5
2023-03-17T11:34:18.539Z,10.6
2023-03-17T11:35:18.515Z,10.7
2023-03-17T11:36:18.603Z,10.7
2023-03-17T11:39:31.243Z,10.8
2023-03-17T11:41:34.884Z,10.9
2023-03-17T11:43:18.527Z,10.9
2023-03-17T11:44:30.280Z,10.9
2023-03-17T11:45:18.517Z,10.9
2023-03-17T11:46:18.603Z,11
2023-03-17T11:47:18.504Z,11
2023-03-17T11:48:18.561Z,11.1
2023-03-17T11:49:18.524Z,11.2
2023-03-17T11:50:18.528Z,11.2
2023-03-17T11:52:33.255Z,11.3
2023-03-17T11:54:18.580Z,11.4
2023-03-17T11:55:18.522Z,11.5
2023-03-17T11:56:18.555Z,11.5
2023-03-17T11:57:18.549Z,11.5
2023-03-17T11:58:18.522Z,11.6
2023-03-17T11:59:33.269Z,11.6
2023-03-17T12:01:18.527Z,11.6
2023-03-17T12:02:20.171Z,11.6
2023-03-17T12:04:26.299Z,11.6
2023-03-17T12:05:28.788Z,11.6
2023-03-17T12:07:18.528Z,11.6
2023-03-17T12:08:33.284Z,11.5
2023-03-17T12:10:18.686Z,11.5
2023-03-17T12:11:18.545Z,11.4
2023-03-17T12:13:18.598Z,11.4
2023-03-17T12:14:18.541Z,11.4
2023-03-17T12:16:18.588Z,11.4
2023-03-17T12:19:27.260Z,11.4
2023-03-17T12:20:16.024Z,11.4
2023-03-17T12:29:54.474Z,11
2023-03-17T12:32:18.539Z,11
2023-03-17T12:34:18.589Z,11
2023-03-17T12:35:44.002Z,10.9
2023-03-17T12:40:57.186Z,10.7
2023-03-17T12:52:24.848Z,10.8
2023-03-17T13:00:41.684Z,10.9
2023-03-17T13:00:42.217Z,10.9
2023-03-17T13:01:29.127Z,11.2
2023-03-17T13:03:29.133Z,11.2
2023-03-17T13:06:29.077Z,11.3
2023-03-17T13:07:29.096Z,11.2
2023-03-17T13:09:04.734Z,11.2
2023-03-17T13:10:06.702Z,11.2
2023-03-17T13:11:08.676Z,11.2
2023-03-17T13:12:10.691Z,11.2
2023-03-17T13:15:16.735Z,11.3
2023-03-17T13:20:33.004Z,11.2
2023-03-17T13:23:42.196Z,11.2
2023-03-17T13:27:10.706Z,11.2
2023-03-17T13:28:24.803Z,11.2
2023-03-17T13:29:14.690Z,11.2
2023-03-17T13:31:19.344Z,11.2
2023-03-17T13:33:26.754Z,11.2
2023-03-17T13:34:28.693Z,11.2
2023-03-17T13:35:30.883Z,11.1
2023-03-17T13:36:42.943Z,11.1
2023-03-17T13:37:34.717Z,11.1
2023-03-17T13:38:36.685Z,11.1
2023-03-17T13:40:41.747Z,11.1
2023-03-17T13:42:45.733Z,11.2
2023-03-17T13:47:06.943Z,11.3
2023-03-17T13:47:56.703Z,11.3
2023-03-17T13:48:58.719Z,11.3
2023-03-17T13:50:00.783Z,11.3
2023-03-17T13:52:18.815Z,11.2
2023-03-17T13:53:06.726Z,11.2
2023-03-17T13:55:48.870Z,11.3
2023-03-17T13:58:42.138Z,11.3
2023-03-17T13:59:44.144Z,11.3
2023-03-17T14:00:46.264Z,11.3
2023-03-17T14:01:48.108Z,11.3
2023-03-17T14:03:29.204Z,11.3
2023-03-17T14:04:29.205Z,11.4
2023-03-17T14:08:16.633Z,11.3
2023-03-17T14:09:18.628Z,11.2
2023-03-17T14:11:22.796Z,11.3
2023-03-17T14:13:27.548Z,11.3
2023-03-17T14:15:44.728Z,11.2
2023-03-17T14:17:46.931Z,11.2
2023-03-17T14:19:36.021Z,11.2
2023-03-17T14:20:34.163Z,11.2
2023-03-17T14:21:35.186Z,11.2
2023-03-17T14:23:39.993Z,11.1
2023-03-17T14:24:36.966Z,11.1
2023-03-17T14:26:05.585Z,11.1
2023-03-17T14:27:13.837Z,11.1
2023-03-17T14:28:11.442Z,11.1
2023-03-17T14:31:05.621Z,11.2
2023-03-17T14:33:01.636Z,11.2
2023-03-17T14:33:29.151Z,11.2
2023-03-17T14:35:01.224Z,11.2
2023-03-17T14:35:38.653Z,11.2
2023-03-17T14:37:30.118Z,11.2
2023-03-17T14:37:33.730Z,11.2
2023-03-17T14:40:30.241Z,11.1
2023-03-17T14:51:40.162Z,11.1
2023-03-17T14:54:28.490Z,11.1
2023-03-17T14:55:32.058Z,11
2023-03-17T14:56:48.033Z,11
2023-03-17T14:57:49.212Z,11
2023-03-17T14:58:36.691Z,11
2023-03-17T15:00:41.996Z,10.9
2023-03-17T15:01:48.964Z,11
2023-03-17T15:02:45.998Z,11
2023-03-17T15:03:48.970Z,10.9
2023-03-17T15:08:59.933Z,10.9
2023-03-17T15:09:00.424Z,10.9
2023-03-17T15:09:29.162Z,10.9
2023-03-17T15:10:29.680Z,10.9
2023-03-17T15:11:30.747Z,11
2023-03-17T15:12:33.759Z,11
2023-03-17T15:18:49.606Z,10.9
2023-03-17T15:19:51.586Z,10.9
2023-03-17T15:20:53.613Z,10.9
2023-03-17T15:22:57.553Z,10.9
2023-03-17T15:25:02.202Z,10.9
2023-03-17T15:26:05.201Z,10.9
2023-03-17T15:27:07.192Z,10.9
2023-03-17T15:28:09.206Z,11
2023-03-17T15:29:11.186Z,11
2023-03-17T15:30:13.173Z,10.9
2023-03-17T15:31:15.228Z,10.9
2023-03-17T15:32:17.191Z,10.9
2023-03-17T15:33:19.222Z,10.9
2023-03-17T15:34:21.187Z,10.9
2023-03-17T15:35:23.192Z,10.8
2023-03-17T15:36:32.760Z,10.8
2023-03-17T15:37:27.196Z,10.8
2023-03-17T15:38:29.260Z,10.7
2023-03-17T15:39:31.216Z,10.7
2023-03-17T15:40:34.197Z,10.6
2023-03-17T15:41:37.205Z,10.6
2023-03-17T15:42:39.192Z,10.5
2023-03-17T15:43:41.255Z,10.5
2023-03-17T15:44:44.229Z,10.5
2023-03-17T15:45:46.355Z,10.5
2023-03-17T15:46:48.205Z,10.4
2023-03-17T15:47:51.211Z,10.4
2023-03-17T15:48:53.240Z,10.3
2023-03-17T15:49:55.208Z,10.3
2023-03-17T15:50:57.207Z,10.3
2023-03-17T15:51:59.207Z,10.3
2023-03-17T15:53:01.205Z,10.2
2023-03-17T15:54:03.246Z,10.2
2023-03-17T15:55:06.143Z,10.2
2023-03-17T15:56:19.811Z,10.2
2023-03-17T15:57:09.201Z,10.2
2023-03-17T15:58:11.216Z,10.2
2023-03-17T15:59:13.197Z,10.1
2023-03-17T16:00:15.231Z,10.1
2023-03-17T16:01:17.268Z,10.1
2023-03-17T16:02:19.209Z,10
2023-03-17T16:03:21.226Z,10
2023-03-17T16:04:23.275Z,9.9
2023-03-17T16:05:25.245Z,9.9
2023-03-17T16:06:27.214Z,9.9
2023-03-17T16:07:29.205Z,9.9
2023-03-17T16:08:31.215Z,9.8
2023-03-17T16:09:33.253Z,9.7
2023-03-17T16:10:35.215Z,9.6
2023-03-17T16:11:39.406Z,9.6
2023-03-17T16:12:39.212Z,9.6
2023-03-17T16:13:41.223Z,9.6
2023-03-17T16:14:45.246Z,9.5
2023-03-17T16:15:48.307Z,9.5
2023-03-17T16:16:50.218Z,9.5
2023-03-17T16:17:52.211Z,9.4
2023-03-17T16:18:54.229Z,9.4
2023-03-17T16:19:56.259Z,9.4
2023-03-17T16:20:58.299Z,9.3
2023-03-17T16:22:00.218Z,9.4
2023-03-17T16:23:02.243Z,9.3
2023-03-17T16:24:04.224Z,9.3
2023-03-17T16:25:06.219Z,9.3
2023-03-17T16:26:15.482Z,9.2
2023-03-17T16:27:10.245Z,9.1
2023-03-17T16:28:12.227Z,9.1
2023-03-17T16:29:14.242Z,9.1
2023-03-17T16:30:16.235Z,9.1
2023-03-17T16:31:18.460Z,9.1
2023-03-17T16:32:20.237Z,9
2023-03-17T16:33:22.262Z,9.1
2023-03-17T16:34:25.228Z,9
2023-03-17T16:35:27.262Z,9.1
2023-03-17T16:37:31.238Z,9.1
2023-03-17T16:39:35.270Z,9
2023-03-17T16:40:37.238Z,9
2023-03-17T16:41:39.240Z,9
2023-03-17T16:42:41.263Z,9
2023-03-17T16:43:45.239Z,9
2023-03-17T16:44:47.369Z,8.9
2023-03-17T16:45:49.264Z,8.8
2023-03-17T16:47:29.248Z,8.8
2023-03-17T16:48:29.244Z,8.8
2023-03-17T16:49:29.238Z,8.8
2023-03-17T16:50:29.771Z,8.7
2023-03-17T16:51:29.253Z,8.7
2023-03-17T16:52:29.271Z,8.6
2023-03-17T16:53:29.236Z,8.7
2023-03-17T16:54:29.241Z,8.7
2023-03-17T16:55:29.238Z,8.6
2023-03-17T16:56:29.256Z,8.6
2023-03-17T16:57:29.254Z,8.5
2023-03-17T16:58:29.251Z,8.5
2023-03-17T16:59:29.284Z,8.5
2023-03-17T17:00:29.741Z,8.4